sensor_id;sensor_type;location;lat;lon;timestamp;P1;durP1;ratioP1;P2;durP2;ratioP2
1014;SDS011;8170;48.118;11.628;2022-12-07T00:01:05;17.92;;;14.27;;
1014;SDS011;8170;48.118;11.628;2022-12-07T00:02:14;18.92;;;15.23;;
1014;SDS011;8170;48.118;11.628;2022-12-07T00:03:22;18.05;;;15.02;;
1014;SDS011;8170;48.118;11.628;2022-12-07T00:04:25;17.23;;;14.40;;
1014;SDS011;8170;48.118;11.628;2022-12-07T00:05:29;17.67;;;14.75;;
1014;SDS011;8170;48.118;11.628;2022-12-07T00:06:32;19.17;;;15.40;;
1014;SDS011;8170;48.118;11.628;2022-12-07T00:07:36;19.02;;;15.32;;
1014;SDS011;8170;48.118;11.628;2022-12-07T00:08:38;17.70;;;15.60;;
1014;SDS011;8170;48.118;11.628;2022-12-07T00:09:42;19.40;;;14.35;;
1014;SDS011;8170;48.118;11.628;2022-12-07T00:10:44;19.00;;;16.48;;
1014;SDS011;8170;48.118;11.628;2022-12-07T00:11:48;16.77;;;14.02;;
1014;SDS011;8170;48.118;11.628;2022-12-07T00:12:52;17.67;;;14.60;;
1014;SDS011;8170;48.118;11.628;2022-12-07T00:13:55;18.58;;;14.65;;
1014;SDS011;8170;48.118;11.628;2022-12-07T00:14:59;15.70;;;13.70;;
1014;SDS011;8170;48.118;11.628;2022-12-07T00:16:03;22.30;;;14.98;;
1014;SDS011;8170;48.118;11.628;2022-12-07T00:17:09;21.15;;;13.88;;
1014;SDS011;8170;48.118;11.628;2022-12-07T00:18:12;17.52;;;14.57;;
1014;SDS011;8170;48.118;11.628;2022-12-07T00:19:14;16.95;;;14.25;;
1014;SDS011;8170;48.118;11.628;2022-12-07T00:20:18;18.02;;;14.57;;
1014;SDS011;8170;48.118;11.628;2022-12-07T00:21:20;17.25;;;14.07;;
1014;SDS011;8170;48.118;11.628;2022-12-07T00:22:25;18.35;;;14.32;;
1014;SDS011;8170;48.118;11.628;2022-12-07T00:23:27;16.33;;;14.00;;
1014;SDS011;8170;48.118;11.628;2022-12-07T00:24:30;17.10;;;13.90;;
1014;SDS011;8170;48.118;11.628;2022-12-07T00:25:33;15.70;;;13.50;;
1014;SDS011;8170;48.118;11.628;2022-12-07T00:26:38;14.68;;;12.15;;
1014;SDS011;8170;48.118;11.628;2022-12-07T00:27:43;16.38;;;13.57;;
1014;SDS011;8170;48.118;11.628;2022-12-07T00:28:46;15.38;;;13.10;;
1014;SDS011;8170;48.118;11.628;2022-12-07T00:29:50;13.55;;;12.02;;
1014;SDS011;8170;48.118;11.628;2022-12-07T00:30:52;13.90;;;12.45;;
1014;SDS011;8170;48.118;11.628;2022-12-07T00:32:04;15.32;;;12.95;;
1014;SDS011;8170;48.118;11.628;2022-12-07T00:33:06;14.25;;;12.02;;
1014;SDS011;8170;48.118;11.628;2022-12-07T00:34:11;15.45;;;13.10;;
1014;SDS011;8170;48.118;11.628;2022-12-07T00:35:16;16.45;;;13.27;;
1014;SDS011;8170;48.118;11.628;2022-12-07T00:36:18;14.27;;;12.77;;
1014;SDS011;8170;48.118;11.628;2022-12-07T00:37:27;13.32;;;11.13;;
1014;SDS011;8170;48.118;11.628;2022-12-07T00:38:31;14.82;;;13.23;;
1014;SDS011;8170;48.118;11.628;2022-12-07T00:39:35;15.52;;;13.18;;
1014;SDS011;8170;48.118;11.628;2022-12-07T00:40:37;14.90;;;12.15;;
1014;SDS011;8170;48.118;11.628;2022-12-07T00:41:41;14.02;;;12.45;;
1014;SDS011;8170;48.118;11.628;2022-12-07T00:42:44;13.40;;;11.25;;
1014;SDS011;8170;48.118;11.628;2022-12-07T00:43:47;12.88;;;11.45;;
1014;SDS011;8170;48.118;11.628;2022-12-07T00:44:51;14.77;;;13.27;;
1014;SDS011;8170;48.118;11.628;2022-12-07T00:45:54;15.20;;;13.50;;
1014;SDS011;8170;48.118;11.628;2022-12-07T00:46:57;15.93;;;12.75;;
1014;SDS011;8170;48.118;11.628;2022-12-07T00:48:01;14.27;;;12.00;;
1014;SDS011;8170;48.118;11.628;2022-12-07T00:49:05;14.20;;;12.70;;
1014;SDS011;8170;48.118;11.628;2022-12-07T00:50:07;15.27;;;11.18;;
1014;SDS011;8170;48.118;11.628;2022-12-07T00:51:11;17.52;;;12.15;;
1014;SDS011;8170;48.118;11.628;2022-12-07T00:52:14;15.18;;;12.45;;
1014;SDS011;8170;48.118;11.628;2022-12-07T00:53:18;13.90;;;11.98;;
1014;SDS011;8170;48.118;11.628;2022-12-07T00:54:20;14.30;;;12.80;;
1014;SDS011;8170;48.118;11.628;2022-12-07T00:55:23;14.65;;;12.05;;
1014;SDS011;8170;48.118;11.628;2022-12-07T00:56:26;15.43;;;13.40;;
1014;SDS011;8170;48.118;11.628;2022-12-07T00:57:30;14.50;;;12.23;;
1014;SDS011;8170;48.118;11.628;2022-12-07T00:58:32;13.32;;;11.93;;
1014;SDS011;8170;48.118;11.628;2022-12-07T00:59:36;15.50;;;13.18;;
1014;SDS011;8170;48.118;11.628;2022-12-07T01:00:38;16.10;;;13.43;;
1014;SDS011;8170;48.118;11.628;2022-12-07T01:01:43;14.23;;;12.52;;
1014;SDS011;8170;48.118;11.628;2022-12-07T01:02:45;11.68;;;10.48;;
1014;SDS011;8170;48.118;11.628;2022-12-07T01:03:50;13.30;;;11.90;;
1014;SDS011;8170;48.118;11.628;2022-12-07T01:04:52;14.45;;;12.15;;
1014;SDS011;8170;48.118;11.628;2022-12-07T01:05:56;14.35;;;12.88;;
1014;SDS011;8170;48.118;11.628;2022-12-07T01:06:58;15.50;;;12.70;;
1014;SDS011;8170;48.118;11.628;2022-12-07T01:08:02;13.55;;;11.88;;
1014;SDS011;8170;48.118;11.628;2022-12-07T01:09:04;13.98;;;12.05;;
1014;SDS011;8170;48.118;11.628;2022-12-07T01:10:08;14.02;;;12.30;;
1014;SDS011;8170;48.118;11.628;2022-12-07T01:11:11;13.90;;;12.32;;
1014;SDS011;8170;48.118;11.628;2022-12-07T01:12:16;12.30;;;10.95;;
1014;SDS011;8170;48.118;11.628;2022-12-07T01:13:18;13.73;;;11.77;;
1014;SDS011;8170;48.118;11.628;2022-12-07T01:14:21;13.48;;;11.50;;
1014;SDS011;8170;48.118;11.628;2022-12-07T01:15:25;13.48;;;12.07;;
1014;SDS011;8170;48.118;11.628;2022-12-07T01:16:29;13.40;;;11.25;;
1014;SDS011;8170;48.118;11.628;2022-12-07T01:17:34;14.25;;;12.75;;
1014;SDS011;8170;48.118;11.628;2022-12-07T01:18:36;14.20;;;12.40;;
1014;SDS011;8170;48.118;11.628;2022-12-07T01:19:41;12.07;;;10.77;;
1014;SDS011;8170;48.118;11.628;2022-12-07T01:20:43;16.27;;;12.13;;
1014;SDS011;8170;48.118;11.628;2022-12-07T01:21:47;13.25;;;11.10;;
1014;SDS011;8170;48.118;11.628;2022-12-07T01:22:49;13.63;;;12.23;;
1014;SDS011;8170;48.118;11.628;2022-12-07T01:23:52;12.93;;;11.52;;
1014;SDS011;8170;48.118;11.628;2022-12-07T01:24:55;12.80;;;11.50;;
1014;SDS011;8170;48.118;11.628;2022-12-07T01:25:59;13.93;;;12.10;;
1014;SDS011;8170;48.118;11.628;2022-12-07T01:27:02;13.55;;;12.15;;
1014;SDS011;8170;48.118;11.628;2022-12-07T01:28:06;14.02;;;12.30;;
1014;SDS011;8170;48.118;11.628;2022-12-07T01:29:08;14.38;;;12.75;;
1014;SDS011;8170;48.118;11.628;2022-12-07T01:30:12;13.30;;;11.35;;
1014;SDS011;8170;48.118;11.628;2022-12-07T01:31:15;11.77;;;10.35;;
1014;SDS011;8170;48.118;11.628;2022-12-07T01:32:20;13.80;;;12.40;;
1014;SDS011;8170;48.118;11.628;2022-12-07T01:33:22;13.27;;;11.75;;
1014;SDS011;8170;48.118;11.628;2022-12-07T01:34:25;14.10;;;12.70;;
1014;SDS011;8170;48.118;11.628;2022-12-07T01:35:29;12.77;;;11.48;;
1014;SDS011;8170;48.118;11.628;2022-12-07T01:36:33;12.25;;;10.85;;
1014;SDS011;8170;48.118;11.628;2022-12-07T01:37:37;13.25;;;11.80;;
1014;SDS011;8170;48.118;11.628;2022-12-07T01:38:41;11.77;;;10.57;;
1014;SDS011;8170;48.118;11.628;2022-12-07T01:39:44;12.88;;;10.27;;
1014;SDS011;8170;48.118;11.628;2022-12-07T01:40:58;11.85;;;10.65;;
1014;SDS011;8170;48.118;11.628;2022-12-07T01:42:10;12.00;;;10.65;;
1014;SDS011;8170;48.118;11.628;2022-12-07T01:43:14;12.93;;;11.55;;
1014;SDS011;8170;48.118;11.628;2022-12-07T01:44:20;13.35;;;11.50;;
1014;SDS011;8170;48.118;11.628;2022-12-07T01:45:36;14.48;;;10.82;;
1014;SDS011;8170;48.118;11.628;2022-12-07T01:46:40;12.35;;;11.05;;
1014;SDS011;8170;48.118;11.628;2022-12-07T01:47:45;11.63;;;10.43;;
1014;SDS011;8170;48.118;11.628;2022-12-07T01:48:51;13.50;;;11.52;;
1014;SDS011;8170;48.118;11.628;2022-12-07T01:49:54;10.57;;;9.48;;
1014;SDS011;8170;48.118;11.628;2022-12-07T01:50:59;14.10;;;11.50;;
1014;SDS011;8170;48.118;11.628;2022-12-07T01:52:08;12.00;;;10.48;;
1014;SDS011;8170;48.118;11.628;2022-12-07T01:53:15;10.80;;;9.65;;
1014;SDS011;8170;48.118;11.628;2022-12-07T01:54:19;13.40;;;11.50;;
1014;SDS011;8170;48.118;11.628;2022-12-07T01:55:23;12.65;;;10.35;;
1014;SDS011;8170;48.118;11.628;2022-12-07T01:56:26;10.88;;;9.70;;
1014;SDS011;8170;48.118;11.628;2022-12-07T01:57:30;11.85;;;10.48;;
1014;SDS011;8170;48.118;11.628;2022-12-07T01:58:34;11.35;;;10.25;;
1014;SDS011;8170;48.118;11.628;2022-12-07T01:59:37;12.32;;;11.00;;
1014;SDS011;8170;48.118;11.628;2022-12-07T02:00:41;12.00;;;9.80;;
1014;SDS011;8170;48.118;11.628;2022-12-07T02:01:43;11.18;;;9.85;;
1014;SDS011;8170;48.118;11.628;2022-12-07T02:02:48;12.10;;;10.80;;
1014;SDS011;8170;48.118;11.628;2022-12-07T02:03:54;12.88;;;10.80;;
1014;SDS011;8170;48.118;11.628;2022-12-07T02:04:58;12.60;;;11.25;;
1014;SDS011;8170;48.118;11.628;2022-12-07T02:06:03;15.43;;;11.07;;
1014;SDS011;8170;48.118;11.628;2022-12-07T02:07:08;12.25;;;10.35;;
1014;SDS011;8170;48.118;11.628;2022-12-07T02:08:10;12.15;;;10.45;;
1014;SDS011;8170;48.118;11.628;2022-12-07T02:09:15;12.88;;;11.48;;
1014;SDS011;8170;48.118;11.628;2022-12-07T02:10:18;12.25;;;10.88;;
1014;SDS011;8170;48.118;11.628;2022-12-07T02:11:23;12.70;;;11.15;;
1014;SDS011;8170;48.118;11.628;2022-12-07T02:12:25;13.85;;;11.65;;
1014;SDS011;8170;48.118;11.628;2022-12-07T02:13:29;10.90;;;9.70;;
1014;SDS011;8170;48.118;11.628;2022-12-07T02:14:34;11.40;;;10.18;;
1014;SDS011;8170;48.118;11.628;2022-12-07T02:15:39;12.45;;;11.18;;
1014;SDS011;8170;48.118;11.628;2022-12-07T02:16:51;12.13;;;10.40;;
1014;SDS011;8170;48.118;11.628;2022-12-07T02:18:05;13.00;;;11.52;;
1014;SDS011;8170;48.118;11.628;2022-12-07T02:20:42;12.48;;;11.18;;
1014;SDS011;8170;48.118;11.628;2022-12-07T02:21:53;12.90;;;11.38;;
1014;SDS011;8170;48.118;11.628;2022-12-07T02:23:12;12.18;;;10.90;;
1014;SDS011;8170;48.118;11.628;2022-12-07T02:24:45;13.93;;;11.63;;
1014;SDS011;8170;48.118;11.628;2022-12-07T02:25:59;12.32;;;11.02;;
1014;SDS011;8170;48.118;11.628;2022-12-07T02:27:28;13.70;;;10.93;;
1014;SDS011;8170;48.118;11.628;2022-12-07T02:28:48;13.20;;;11.80;;
1014;SDS011;8170;48.118;11.628;2022-12-07T02:30:04;13.25;;;11.70;;
1014;SDS011;8170;48.118;11.628;2022-12-07T02:31:11;13.20;;;11.20;;
1014;SDS011;8170;48.118;11.628;2022-12-07T02:32:20;12.90;;;11.27;;
1014;SDS011;8170;48.118;11.628;2022-12-07T02:33:28;13.15;;;11.13;;
1014;SDS011;8170;48.118;11.628;2022-12-07T02:34:39;12.13;;;10.50;;
1014;SDS011;8170;48.118;11.628;2022-12-07T02:35:50;13.15;;;11.75;;
1014;SDS011;8170;48.118;11.628;2022-12-07T02:37:00;12.80;;;11.43;;
1014;SDS011;8170;48.118;11.628;2022-12-07T02:38:09;13.57;;;12.15;;
1014;SDS011;8170;48.118;11.628;2022-12-07T02:39:19;13.15;;;11.75;;
1014;SDS011;8170;48.118;11.628;2022-12-07T02:40:27;13.50;;;11.90;;
1014;SDS011;8170;48.118;11.628;2022-12-07T02:41:37;13.25;;;11.45;;
1014;SDS011;8170;48.118;11.628;2022-12-07T02:42:45;10.70;;;9.60;;
1014;SDS011;8170;48.118;11.628;2022-12-07T02:43:54;12.38;;;10.48;;
1014;SDS011;8170;48.118;11.628;2022-12-07T02:45:00;11.15;;;9.65;;
1014;SDS011;8170;48.118;11.628;2022-12-07T02:46:04;11.90;;;10.60;;
1014;SDS011;8170;48.118;11.628;2022-12-07T02:47:12;12.13;;;10.80;;
1014;SDS011;8170;48.118;11.628;2022-12-07T02:48:18;11.57;;;9.77;;
1014;SDS011;8170;48.118;11.628;2022-12-07T02:49:23;12.05;;;10.38;;
1014;SDS011;8170;48.118;11.628;2022-12-07T02:50:27;11.18;;;9.48;;
1014;SDS011;8170;48.118;11.628;2022-12-07T02:51:31;11.32;;;9.07;;
1014;SDS011;8170;48.118;11.628;2022-12-07T02:52:33;11.43;;;9.95;;
1014;SDS011;8170;48.118;11.628;2022-12-07T02:53:38;12.45;;;11.15;;
1014;SDS011;8170;48.118;11.628;2022-12-07T02:54:41;12.85;;;10.27;;
1014;SDS011;8170;48.118;11.628;2022-12-07T02:55:45;11.38;;;10.20;;
1014;SDS011;8170;48.118;11.628;2022-12-07T02:56:48;11.80;;;10.60;;
1014;SDS011;8170;48.118;11.628;2022-12-07T02:59:28;12.80;;;10.70;;
1014;SDS011;8170;48.118;11.628;2022-12-07T03:00:39;12.40;;;10.88;;
1014;SDS011;8170;48.118;11.628;2022-12-07T03:01:50;12.55;;;11.25;;
1014;SDS011;8170;48.118;11.628;2022-12-07T03:03:03;13.23;;;11.45;;
1014;SDS011;8170;48.118;11.628;2022-12-07T03:04:14;12.75;;;11.45;;
1014;SDS011;8170;48.118;11.628;2022-12-07T03:05:37;13.32;;;11.40;;
1014;SDS011;8170;48.118;11.628;2022-12-07T03:06:53;11.98;;;10.77;;
1014;SDS011;8170;48.118;11.628;2022-12-07T03:08:02;12.63;;;10.75;;
1014;SDS011;8170;48.118;11.628;2022-12-07T03:09:14;12.18;;;10.93;;
1014;SDS011;8170;48.118;11.628;2022-12-07T03:10:24;12.05;;;10.57;;
1014;SDS011;8170;48.118;11.628;2022-12-07T03:11:37;14.55;;;11.70;;
1014;SDS011;8170;48.118;11.628;2022-12-07T03:12:48;13.10;;;11.80;;
1014;SDS011;8170;48.118;11.628;2022-12-07T03:14:02;12.85;;;11.45;;
1014;SDS011;8170;48.118;11.628;2022-12-07T03:15:13;13.15;;;11.60;;
1014;SDS011;8170;48.118;11.628;2022-12-07T03:16:21;13.18;;;11.85;;
1014;SDS011;8170;48.118;11.628;2022-12-07T03:17:27;14.13;;;11.63;;
1014;SDS011;8170;48.118;11.628;2022-12-07T03:18:35;13.25;;;10.48;;
1014;SDS011;8170;48.118;11.628;2022-12-07T03:19:40;16.38;;;12.00;;
1014;SDS011;8170;48.118;11.628;2022-12-07T03:20:44;15.15;;;12.50;;
1014;SDS011;8170;48.118;11.628;2022-12-07T03:21:54;13.75;;;10.88;;
1014;SDS011;8170;48.118;11.628;2022-12-07T03:23:03;12.32;;;10.77;;
1014;SDS011;8170;48.118;11.628;2022-12-07T03:24:08;12.32;;;11.05;;
1014;SDS011;8170;48.118;11.628;2022-12-07T03:25:15;13.40;;;12.00;;
1014;SDS011;8170;48.118;11.628;2022-12-07T03:26:18;12.35;;;11.02;;
1014;SDS011;8170;48.118;11.628;2022-12-07T03:27:25;10.30;;;9.13;;
1014;SDS011;8170;48.118;11.628;2022-12-07T03:28:31;13.35;;;11.95;;
1014;SDS011;8170;48.118;11.628;2022-12-07T03:29:40;12.05;;;9.88;;
1014;SDS011;8170;48.118;11.628;2022-12-07T03:30:51;13.07;;;10.00;;
1014;SDS011;8170;48.118;11.628;2022-12-07T03:31:59;14.13;;;11.10;;
1014;SDS011;8170;48.118;11.628;2022-12-07T03:33:06;11.52;;;10.30;;
1014;SDS011;8170;48.118;11.628;2022-12-07T03:34:13;13.50;;;12.20;;
1014;SDS011;8170;48.118;11.628;2022-12-07T03:35:21;12.82;;;10.50;;
1014;SDS011;8170;48.118;11.628;2022-12-07T03:36:28;12.35;;;10.68;;
1014;SDS011;8170;48.118;11.628;2022-12-07T03:37:35;12.73;;;10.95;;
1014;SDS011;8170;48.118;11.628;2022-12-07T03:38:42;11.63;;;10.43;;
1014;SDS011;8170;48.118;11.628;2022-12-07T03:39:50;10.82;;;9.68;;
1014;SDS011;8170;48.118;11.628;2022-12-07T03:41:01;10.90;;;9.80;;
1014;SDS011;8170;48.118;11.628;2022-12-07T03:42:08;13.23;;;11.52;;
1014;SDS011;8170;48.118;11.628;2022-12-07T03:43:12;10.25;;;9.25;;
1014;SDS011;8170;48.118;11.628;2022-12-07T03:44:16;11.77;;;10.55;;
1014;SDS011;8170;48.118;11.628;2022-12-07T03:45:23;11.55;;;10.20;;
1014;SDS011;8170;48.118;11.628;2022-12-07T03:46:36;12.55;;;11.25;;
1014;SDS011;8170;48.118;11.628;2022-12-07T03:47:48;12.70;;;11.40;;
1014;SDS011;8170;48.118;11.628;2022-12-07T03:49:06;11.18;;;9.60;;
1014;SDS011;8170;48.118;11.628;2022-12-07T03:50:15;14.15;;;11.70;;
1014;SDS011;8170;48.118;11.628;2022-12-07T03:51:25;11.73;;;10.30;;
1014;SDS011;8170;48.118;11.628;2022-12-07T03:52:33;11.60;;;10.40;;
1014;SDS011;8170;48.118;11.628;2022-12-07T03:53:42;12.23;;;11.02;;
1014;SDS011;8170;48.118;11.628;2022-12-07T03:54:56;13.25;;;11.85;;
1014;SDS011;8170;48.118;11.628;2022-12-07T03:56:02;12.88;;;11.50;;
1014;SDS011;8170;48.118;11.628;2022-12-07T03:57:06;12.52;;;11.23;;
1014;SDS011;8170;48.118;11.628;2022-12-07T03:58:15;13.68;;;12.25;;
1014;SDS011;8170;48.118;11.628;2022-12-07T03:59:22;12.15;;;10.85;;
1014;SDS011;8170;48.118;11.628;2022-12-07T04:00:27;12.50;;;11.20;;
1014;SDS011;8170;48.118;11.628;2022-12-07T04:01:35;13.70;;;12.00;;
1014;SDS011;8170;48.118;11.628;2022-12-07T04:02:43;14.98;;;11.60;;
1014;SDS011;8170;48.118;11.628;2022-12-07T04:03:45;13.32;;;11.82;;
1014;SDS011;8170;48.118;11.628;2022-12-07T04:04:51;15.95;;;13.63;;
1014;SDS011;8170;48.118;11.628;2022-12-07T04:05:55;14.55;;;13.05;;
1014;SDS011;8170;48.118;11.628;2022-12-07T04:07:03;15.57;;;13.80;;
1014;SDS011;8170;48.118;11.628;2022-12-07T04:08:06;15.20;;;13.63;;
1014;SDS011;8170;48.118;11.628;2022-12-07T04:09:09;15.20;;;12.95;;
1014;SDS011;8170;48.118;11.628;2022-12-07T04:10:15;17.38;;;14.43;;
1014;SDS011;8170;48.118;11.628;2022-12-07T04:11:18;13.30;;;11.95;;
1014;SDS011;8170;48.118;11.628;2022-12-07T04:12:23;14.75;;;13.15;;
1014;SDS011;8170;48.118;11.628;2022-12-07T04:13:26;14.55;;;13.02;;
1014;SDS011;8170;48.118;11.628;2022-12-07T04:14:31;16.58;;;14.20;;
1014;SDS011;8170;48.118;11.628;2022-12-07T04:15:34;14.65;;;13.05;;
1014;SDS011;8170;48.118;11.628;2022-12-07T04:16:38;13.27;;;11.80;;
1014;SDS011;8170;48.118;11.628;2022-12-07T04:17:45;15.32;;;13.73;;
1014;SDS011;8170;48.118;11.628;2022-12-07T04:18:48;13.65;;;11.90;;
1014;SDS011;8170;48.118;11.628;2022-12-07T04:19:51;16.95;;;14.05;;
1014;SDS011;8170;48.118;11.628;2022-12-07T04:20:55;14.70;;;13.10;;
1014;SDS011;8170;48.118;11.628;2022-12-07T04:21:57;15.13;;;12.77;;
1014;SDS011;8170;48.118;11.628;2022-12-07T04:23:04;18.08;;;14.07;;
1014;SDS011;8170;48.118;11.628;2022-12-07T04:24:06;15.57;;;13.85;;
1014;SDS011;8170;48.118;11.628;2022-12-07T04:25:12;14.18;;;12.45;;
1014;SDS011;8170;48.118;11.628;2022-12-07T04:26:15;14.55;;;12.98;;
1014;SDS011;8170;48.118;11.628;2022-12-07T04:27:20;15.20;;;12.63;;
1014;SDS011;8170;48.118;11.628;2022-12-07T04:28:25;15.65;;;13.13;;
1014;SDS011;8170;48.118;11.628;2022-12-07T04:29:29;17.55;;;13.52;;
1014;SDS011;8170;48.118;11.628;2022-12-07T04:30:35;14.60;;;12.75;;
1014;SDS011;8170;48.118;11.628;2022-12-07T04:31:39;15.38;;;13.43;;
1014;SDS011;8170;48.118;11.628;2022-12-07T04:32:43;15.38;;;13.50;;
1014;SDS011;8170;48.118;11.628;2022-12-07T04:33:45;16.55;;;14.73;;
1014;SDS011;8170;48.118;11.628;2022-12-07T04:34:48;16.75;;;14.70;;
1014;SDS011;8170;48.118;11.628;2022-12-07T04:35:56;16.27;;;13.20;;
1014;SDS011;8170;48.118;11.628;2022-12-07T04:36:59;15.98;;;14.30;;
1014;SDS011;8170;48.118;11.628;2022-12-07T04:38:14;15.38;;;12.98;;
1014;SDS011;8170;48.118;11.628;2022-12-07T04:39:18;14.48;;;12.98;;
1014;SDS011;8170;48.118;11.628;2022-12-07T04:40:27;16.27;;;13.88;;
1014;SDS011;8170;48.118;11.628;2022-12-07T04:41:32;16.40;;;14.65;;
1014;SDS011;8170;48.118;11.628;2022-12-07T04:42:34;17.77;;;15.25;;
1014;SDS011;8170;48.118;11.628;2022-12-07T04:43:37;17.10;;;14.85;;
1014;SDS011;8170;48.118;11.628;2022-12-07T04:44:39;14.68;;;13.13;;
1014;SDS011;8170;48.118;11.628;2022-12-07T04:45:45;16.80;;;14.35;;
1014;SDS011;8170;48.118;11.628;2022-12-07T04:46:50;16.92;;;14.90;;
1014;SDS011;8170;48.118;11.628;2022-12-07T04:47:53;14.85;;;13.25;;
1014;SDS011;8170;48.118;11.628;2022-12-07T04:48:56;16.50;;;14.68;;
1014;SDS011;8170;48.118;11.628;2022-12-07T04:49:59;17.40;;;15.60;;
1014;SDS011;8170;48.118;11.628;2022-12-07T04:51:02;16.95;;;14.48;;
1014;SDS011;8170;48.118;11.628;2022-12-07T04:52:05;19.42;;;14.95;;
1014;SDS011;8170;48.118;11.628;2022-12-07T04:53:09;17.33;;;14.73;;
1014;SDS011;8170;48.118;11.628;2022-12-07T04:54:11;16.88;;;15.13;;
1014;SDS011;8170;48.118;11.628;2022-12-07T04:55:14;18.45;;;15.20;;
1014;SDS011;8170;48.118;11.628;2022-12-07T04:56:16;19.30;;;16.08;;
1014;SDS011;8170;48.118;11.628;2022-12-07T04:57:20;17.08;;;14.90;;
1014;SDS011;8170;48.118;11.628;2022-12-07T04:58:22;18.27;;;15.70;;
1014;SDS011;8170;48.118;11.628;2022-12-07T04:59:25;16.10;;;13.18;;
1014;SDS011;8170;48.118;11.628;2022-12-07T05:00:27;18.55;;;15.32;;
1014;SDS011;8170;48.118;11.628;2022-12-07T05:01:31;18.88;;;14.38;;
1014;SDS011;8170;48.118;11.628;2022-12-07T05:02:35;17.17;;;15.32;;
1014;SDS011;8170;48.118;11.628;2022-12-07T05:03:38;16.52;;;14.10;;
1014;SDS011;8170;48.118;11.628;2022-12-07T05:04:41;19.48;;;15.43;;
1014;SDS011;8170;48.118;11.628;2022-12-07T05:05:44;18.48;;;15.60;;
1014;SDS011;8170;48.118;11.628;2022-12-07T05:06:46;18.90;;;15.85;;
1014;SDS011;8170;48.118;11.628;2022-12-07T05:07:51;16.88;;;15.07;;
1014;SDS011;8170;48.118;11.628;2022-12-07T05:08:53;17.25;;;15.45;;
1014;SDS011;8170;48.118;11.628;2022-12-07T05:09:56;17.60;;;15.05;;
1014;SDS011;8170;48.118;11.628;2022-12-07T05:10:58;17.55;;;14.63;;
1014;SDS011;8170;48.118;11.628;2022-12-07T05:12:02;17.17;;;14.90;;
1014;SDS011;8170;48.118;11.628;2022-12-07T05:13:04;18.85;;;15.52;;
1014;SDS011;8170;48.118;11.628;2022-12-07T05:14:09;20.40;;;15.48;;
1014;SDS011;8170;48.118;11.628;2022-12-07T05:15:13;15.48;;;13.68;;
1014;SDS011;8170;48.118;11.628;2022-12-07T05:16:17;22.05;;;15.70;;
1014;SDS011;8170;48.118;11.628;2022-12-07T05:17:19;16.38;;;14.68;;
1014;SDS011;8170;48.118;11.628;2022-12-07T05:18:24;19.98;;;16.40;;
1014;SDS011;8170;48.118;11.628;2022-12-07T05:19:26;18.05;;;15.02;;
1014;SDS011;8170;48.118;11.628;2022-12-07T05:20:29;16.52;;;14.68;;
1014;SDS011;8170;48.118;11.628;2022-12-07T05:21:31;23.63;;;21.02;;
1014;SDS011;8170;48.118;11.628;2022-12-07T05:22:34;24.25;;;20.15;;
1014;SDS011;8170;48.118;11.628;2022-12-07T05:23:38;17.85;;;16.02;;
1014;SDS011;8170;48.118;11.628;2022-12-07T05:24:40;20.30;;;18.20;;
1014;SDS011;8170;48.118;11.628;2022-12-07T05:25:43;17.73;;;15.40;;
1014;SDS011;8170;48.118;11.628;2022-12-07T05:26:45;19.20;;;16.30;;
1014;SDS011;8170;48.118;11.628;2022-12-07T05:27:48;18.10;;;15.85;;
1014;SDS011;8170;48.118;11.628;2022-12-07T05:28:53;19.00;;;17.00;;
1014;SDS011;8170;48.118;11.628;2022-12-07T05:29:57;17.98;;;15.13;;
1014;SDS011;8170;48.118;11.628;2022-12-07T05:31:00;19.52;;;16.27;;
1014;SDS011;8170;48.118;11.628;2022-12-07T05:32:03;19.40;;;15.52;;
1014;SDS011;8170;48.118;11.628;2022-12-07T05:33:06;18.70;;;14.32;;
1014;SDS011;8170;48.118;11.628;2022-12-07T05:34:10;18.83;;;15.10;;
1014;SDS011;8170;48.118;11.628;2022-12-07T05:35:13;16.10;;;14.10;;
1014;SDS011;8170;48.118;11.628;2022-12-07T05:36:16;16.48;;;14.52;;
1014;SDS011;8170;48.118;11.628;2022-12-07T05:37:18;16.58;;;14.48;;
1014;SDS011;8170;48.118;11.628;2022-12-07T05:38:21;15.55;;;13.30;;
1014;SDS011;8170;48.118;11.628;2022-12-07T05:39:23;18.15;;;15.27;;
1014;SDS011;8170;48.118;11.628;2022-12-07T05:40:26;16.27;;;13.88;;
1014;SDS011;8170;48.118;11.628;2022-12-07T05:41:29;17.30;;;14.02;;
1014;SDS011;8170;48.118;11.628;2022-12-07T05:42:50;17.08;;;15.27;;
1014;SDS011;8170;48.118;11.628;2022-12-07T05:43:53;15.88;;;14.18;;
1014;SDS011;8170;48.118;11.628;2022-12-07T05:44:55;17.67;;;14.88;;
1014;SDS011;8170;48.118;11.628;2022-12-07T05:45:58;14.45;;;12.73;;
1014;SDS011;8170;48.118;11.628;2022-12-07T05:47:01;14.98;;;13.38;;
1014;SDS011;8170;48.118;11.628;2022-12-07T05:48:04;16.42;;;13.73;;
1014;SDS011;8170;48.118;11.628;2022-12-07T05:49:06;18.35;;;15.20;;
1014;SDS011;8170;48.118;11.628;2022-12-07T05:50:11;16.67;;;14.18;;
1014;SDS011;8170;48.118;11.628;2022-12-07T05:51:14;18.13;;;14.70;;
1014;SDS011;8170;48.118;11.628;2022-12-07T05:52:17;18.20;;;14.52;;
1014;SDS011;8170;48.118;11.628;2022-12-07T05:53:20;18.95;;;15.43;;
1014;SDS011;8170;48.118;11.628;2022-12-07T05:54:24;15.82;;;13.75;;
1014;SDS011;8170;48.118;11.628;2022-12-07T05:55:27;15.35;;;13.10;;
1014;SDS011;8170;48.118;11.628;2022-12-07T05:56:29;14.57;;;11.43;;
1014;SDS011;8170;48.118;11.628;2022-12-07T05:57:32;14.75;;;13.15;;
1014;SDS011;8170;48.118;11.628;2022-12-07T05:58:34;14.40;;;12.90;;
1014;SDS011;8170;48.118;11.628;2022-12-07T05:59:55;14.90;;;12.55;;
1014;SDS011;8170;48.118;11.628;2022-12-07T06:00:58;16.85;;;13.85;;
1014;SDS011;8170;48.118;11.628;2022-12-07T06:02:00;15.45;;;13.60;;
1014;SDS011;8170;48.118;11.628;2022-12-07T06:03:05;15.15;;;13.05;;
1014;SDS011;8170;48.118;11.628;2022-12-07T06:04:07;15.55;;;13.52;;
1014;SDS011;8170;48.118;11.628;2022-12-07T06:05:12;14.32;;;12.82;;
1014;SDS011;8170;48.118;11.628;2022-12-07T06:06:15;16.73;;;14.27;;
1014;SDS011;8170;48.118;11.628;2022-12-07T06:07:17;14.90;;;13.30;;
1014;SDS011;8170;48.118;11.628;2022-12-07T06:08:20;17.20;;;15.10;;
1014;SDS011;8170;48.118;11.628;2022-12-07T06:09:23;14.90;;;13.30;;
1014;SDS011;8170;48.118;11.628;2022-12-07T06:10:28;14.60;;;12.95;;
1014;SDS011;8170;48.118;11.628;2022-12-07T06:11:30;17.50;;;14.32;;
1014;SDS011;8170;48.118;11.628;2022-12-07T06:12:51;17.23;;;14.70;;
1014;SDS011;8170;48.118;11.628;2022-12-07T06:13:54;15.13;;;13.30;;
1014;SDS011;8170;48.118;11.628;2022-12-07T06:14:56;15.95;;;14.25;;
1014;SDS011;8170;48.118;11.628;2022-12-07T06:16:00;17.20;;;14.63;;
1014;SDS011;8170;48.118;11.628;2022-12-07T06:17:02;14.80;;;13.10;;
1014;SDS011;8170;48.118;11.628;2022-12-07T06:18:05;16.83;;;14.38;;
1014;SDS011;8170;48.118;11.628;2022-12-07T06:19:07;15.70;;;13.32;;
1014;SDS011;8170;48.118;11.628;2022-12-07T06:20:12;17.30;;;14.18;;
1014;SDS011;8170;48.118;11.628;2022-12-07T06:21:15;17.40;;;14.52;;
1014;SDS011;8170;48.118;11.628;2022-12-07T06:22:18;17.70;;;15.80;;
1014;SDS011;8170;48.118;11.628;2022-12-07T06:23:23;14.25;;;12.60;;
1014;SDS011;8170;48.118;11.628;2022-12-07T06:24:25;17.55;;;15.13;;
1014;SDS011;8170;48.118;11.628;2022-12-07T06:25:28;16.50;;;14.43;;
1014;SDS011;8170;48.118;11.628;2022-12-07T06:26:31;16.45;;;13.98;;
1014;SDS011;8170;48.118;11.628;2022-12-07T06:27:34;18.08;;;15.18;;
1014;SDS011;8170;48.118;11.628;2022-12-07T06:28:36;15.43;;;13.80;;
1014;SDS011;8170;48.118;11.628;2022-12-07T06:29:39;17.50;;;14.82;;
1014;SDS011;8170;48.118;11.628;2022-12-07T06:30:43;16.65;;;14.77;;
1014;SDS011;8170;48.118;11.628;2022-12-07T06:31:45;17.20;;;15.20;;